Time;durP1;ratioP1;P1;durP2;ratioP2;P2;SDS_P1;SDS_P2;PMS_P1;PMS_P2;Temp;Humidity;BMP_temperature;BMP_pressure;BME280_temperature;BME280_humidity;BME280_pressure;Samples;Min_cycle;Max_cycle;Signal;HPM_P1;HPM_P2
2023/01/08 00:01:52;;;;;;;18.00;12.70;;;;;;;3.20;100.00;97758.40;108051;1264;59674;-67
2023/01/08 00:04:21;;;;;;;18.80;13.20;;;;;;;3.20;100.00;97758.24;108042;1264;59741;-67
2023/01/08 00:06:50;;;;;;;17.10;12.40;;;;;;;3.21;100.00;97757.36;108056;1264;71869;-67
2023/01/08 00:09:19;;;;;;;18.10;12.60;;;;;;;3.21;100.00;97755.80;108092;1264;69330;-67
2023/01/08 00:11:48;;;;;;;14.40;11.50;;;;;;;3.22;100.00;97754.53;108105;1264;68982;-66
2023/01/08 00:14:19;;;;;;;15.10;11.00;;;;;;;3.23;100.00;97756.38;108075;1264;59691;-67
2023/01/08 00:16:48;;;;;;;15.50;11.00;;;;;;;3.23;100.00;97755.52;108084;1264;59696;-67
2023/01/08 00:19:17;;;;;;;14.30;11.20;;;;;;;3.23;100.00;97759.67;108103;1260;69417;-67
2023/01/08 00:21:48;;;;;;;18.10;14.30;;;;;;;3.23;100.00;97760.70;107998;1264;69471;-67
2023/01/08 00:24:17;;;;;;;18.20;12.90;;;;;;;3.24;100.00;97756.36;108115;1264;69026;-66
2023/01/08 00:26:47;;;;;;;19.00;12.90;;;;;;;3.22;100.00;97750.55;108110;1264;59725;-67
2023/01/08 00:29:16;;;;;;;17.20;11.90;;;;;;;3.22;100.00;97754.04;108052;1264;59682;-67
2023/01/08 00:31:44;;;;;;;17.70;12.50;;;;;;;3.22;100.00;97758.48;108154;1254;71330;-67
2023/01/08 00:34:13;;;;;;;16.00;12.20;;;;;;;3.23;100.00;97758.80;108156;1264;68809;-67
2023/01/08 00:36:43;;;;;;;17.90;12.40;;;;;;;3.23;100.00;97753.98;108079;1264;69270;-67
2023/01/08 00:39:12;;;;;;;14.50;10.60;;;;;;;3.23;100.00;97753.45;108090;1264;59752;-67
2023/01/08 00:41:44;;;;;;;15.70;11.90;;;;;;;3.23;100.00;97759.31;108075;1260;59659;-67
2023/01/08 00:44:13;;;;;;;14.20;11.60;;;;;;;3.24;100.00;97764.31;108133;1263;72007;-67
2023/01/08 00:46:42;;;;;;;13.90;10.90;;;;;;;3.24;100.00;97762.57;108126;1264;68385;-68
2023/01/08 00:49:14;;;;;;;17.60;12.30;;;;;;;3.25;100.00;97761.83;108079;1264;69558;-67
2023/01/08 00:51:43;;;;;;;16.50;12.80;;;;;;;3.26;100.00;97762.98;108073;1264;59744;-68
2023/01/08 00:54:12;;;;;;;18.30;13.60;;;;;;;3.27;100.00;97762.45;108085;1259;59654;-68
2023/01/08 00:56:42;;;;;;;15.30;11.70;;;;;;;3.26;100.00;97761.45;108095;1259;71177;-68
2023/01/08 00:59:12;;;;;;;17.70;13.70;;;;;;;3.26;100.00;97761.45;108111;1259;69073;-66
2023/01/08 01:01:41;;;;;;;20.60;14.20;;;;;;;3.25;100.00;97764.41;108126;1264;68547;-66
2023/01/08 01:04:10;;;;;;;17.30;13.50;;;;;;;3.25;100.00;97762.19;108095;1264;59712;-67
2023/01/08 01:06:43;;;;;;;18.80;14.40;;;;;;;3.25;100.00;97760.46;108148;1264;59683;-66
2023/01/08 01:09:12;;;;;;;23.40;15.10;;;;;;;3.25;100.00;97758.59;108109;1263;71364;-67
2023/01/08 01:11:41;;;;;;;20.10;15.10;;;;;;;3.25;100.00;97758.05;108170;1264;69164;-67
2023/01/08 01:14:11;;;;;;;25.20;16.80;;;;;;;3.24;100.00;97759.45;108131;1260;69719;-67
2023/01/08 01:16:41;;;;;;;23.20;17.10;;;;;;;3.23;100.00;97760.00;108187;1264;59670;-68
2023/01/08 01:19:11;;;;;;;22.80;16.70;;;;;;;3.23;100.00;97754.33;108157;1264;59727;-66
2023/01/08 01:21:40;;;;;;;22.40;15.90;;;;;;;3.22;100.00;97751.60;108151;1260;71991;-66
2023/01/08 01:24:12;;;;;;;22.90;15.60;;;;;;;3.22;100.00;97750.25;108051;1264;69285;-67
2023/01/08 01:26:41;;;;;;;22.00;16.00;;;;;;;3.21;100.00;97750.81;108113;1264;67448;-67
2023/01/08 01:29:10;;;;;;;23.00;17.50;;;;;;;3.19;100.00;97754.33;108119;1260;59724;-66
2023/01/08 01:31:40;;;;;;;22.30;16.00;;;;;;;3.16;100.00;97752.20;108166;1264;59720;-67
2023/01/08 01:34:10;;;;;;;19.80;13.80;;;;;;;3.13;100.00;97745.59;108162;1264;70413;-66
2023/01/08 01:36:39;;;;;;;22.40;16.60;;;;;;;3.11;100.00;97747.39;108130;1259;69442;-66
2023/01/08 01:39:09;;;;;;;23.20;15.30;;;;;;;3.09;100.00;97747.27;108146;1264;68259;-66
2023/01/08 01:41:42;;;;;;;22.60;16.10;;;;;;;3.07;100.00;97743.23;108140;1264;59746;-67
2023/01/08 01:44:44;;;;;;;22.60;14.70;;;;;;;3.04;100.00;97745.20;108135;1264;59811;-66
2023/01/08 01:47:28;;;;;;;20.30;14.70;;;;;;;3.01;100.00;97733.10;108150;1259;71378;-66
2023/01/08 01:50:09;;;;;;;21.40;14.40;;;;;;;2.97;100.00;97732.05;108079;1264;69285;-66
2023/01/08 01:52:48;;;;;;;31.30;18.00;;;;;;;2.93;100.00;97728.58;108062;1260;68825;-66
2023/01/08 01:55:18;;;;;;;29.40;17.70;;;;;;;2.89;100.00;97730.63;108150;1260;59694;-66
2023/01/08 01:57:57;;;;;;;23.70;17.10;;;;;;;2.84;100.00;97725.14;108086;1264;59744;-66
2023/01/08 02:00:29;;;;;;;28.70;20.20;;;;;;;2.76;100.00;97724.41;108181;1259;71292;-66
2023/01/08 02:03:00;;;;;;;24.60;17.80;;;;;;;2.67;100.00;97722.67;108128;1264;69315;-66
2023/01/08 02:05:49;;;;;;;21.90;15.00;;;;;;;2.57;100.00;97718.73;108117;1264;69736;-66
2023/01/08 02:08:49;;;;;;;22.70;16.60;;;;;;;2.47;100.00;97717.19;108111;1264;59770;-66
2023/01/08 02:12:15;;;;;;;21.70;16.00;;;;;;;2.35;100.00;97713.99;108112;1260;59713;-66
2023/01/08 02:14:51;;;;;;;46.00;31.00;;;;;;;2.20;100.00;97713.16;108115;1264;71242;-66
2023/01/08 02:17:31;;;;;;;38.80;28.90;;;;;;;2.09;100.00;97711.99;108114;1264;69112;-66
2023/01/08 02:20:08;;;;;;;;;;;;;;;1.99;100.00;97708.88;108124;1260;69208;-68
2023/01/08 02:22:54;;;;;;;36.30;25.40;;;;;;;1.88;100.00;97709.22;108154;1264;59749;-66
2023/01/08 02:25:27;;;;;;;37.70;26.10;;;;;;;1.79;100.00;97704.71;108169;1264;59683;-67
2023/01/08 02:28:00;;;;;;;37.90;25.90;;;;;;;1.70;100.00;97702.26;108129;1260;71829;-66
2023/01/08 02:30:30;;;;;;;31.50;21.50;;;;;;;1.60;100.00;97703.45;108124;1261;69060;-67
2023/01/08 02:33:00;;;;;;;28.70;21.50;;;;;;;1.50;100.00;97703.95;108122;1260;68391;-67
2023/01/08 02:35:39;;;;;;;20.40;14.30;;;;;;;1.44;100.00;97703.10;108140;1259;59730;-67
2023/01/08 02:38:15;;;;;;;22.90;15.70;;;;;;;1.41;100.00;97699.75;108162;1264;59745;-67
2023/01/08 02:41:00;;;;;;;25.70;16.80;;;;;;;1.41;100.00;97701.98;108128;1259;71393;-67
2023/01/08 02:43:48;;;;;;;41.80;25.80;;;;;;;1.40;100.00;97703.08;108091;1260;69077;-66
2023/01/08 02:46:25;;;;;;;35.30;23.20;;;;;;;1.41;100.00;97702.70;107564;1263;654349;-67
2023/01/08 02:49:04;;;;;;;30.70;20.60;;;;;;;1.43;100.00;97701.60;108141;1259;59717;-68
2023/01/08 02:51:41;;;;;;;28.80;18.90;;;;;;;1.43;100.00;97699.88;108276;1264;59760;-68
2023/01/08 02:54:19;;;;;;;27.50;17.90;;;;;;;1.41;100.00;97700.42;109505;1259;70566;-68
2023/01/08 02:57:18;;;;;;;27.70;19.90;;;;;;;1.39;100.00;97700.70;108189;1263;68257;-67
2023/01/08 02:59:49;;;;;;;27.20;17.20;;;;;;;1.35;100.00;97695.84;108105;1260;69140;-68
2023/01/08 03:02:19;;;;;;;28.30;17.70;;;;;;;1.28;100.00;97695.36;108178;1264;59760;-67
2023/01/08 03:04:54;;;;;;;27.50;18.40;;;;;;;1.21;100.00;97691.11;108183;1259;59757;-67
2023/01/08 03:07:24;;;;;;;33.00;22.20;;;;;;;1.16;100.00;97690.95;108168;1261;71295;-67
2023/01/08 03:09:54;;;;;;;42.20;26.00;;;;;;;1.12;100.00;97691.91;108095;1260;69022;-67
2023/01/08 03:12:40;;;;;;;52.80;31.40;;;;;;;1.07;100.00;97690.18;108068;1264;68224;-67
2023/01/08 03:15:16;;;;;;;40.60;26.10;;;;;;;1.02;100.00;97686.04;108121;1264;59759;-67
2023/01/08 03:17:51;;;;;;;34.70;24.00;;;;;;;0.99;100.00;97688.51;108091;1263;59724;-67
2023/01/08 03:20:23;;;;;;;34.80;22.30;;;;;;;0.98;100.00;97682.39;108126;1260;70931;-66
2023/01/08 03:22:56;;;;;;;32.80;21.40;;;;;;;0.99;100.00;97678.06;108058;1259;69227;-67
2023/01/08 03:25:29;;;;;;;32.20;21.60;;;;;;;1.01;100.00;97676.95;108107;1259;69179;-66
2023/01/08 03:28:02;;;;;;;35.40;23.50;;;;;;;1.03;100.00;97679.48;108083;1264;59715;-66
2023/01/08 03:30:34;;;;;;;28.90;19.70;;;;;;;1.02;100.00;97677.45;108111;1260;59707;-67
2023/01/08 03:33:05;;;;;;;26.60;20.10;;;;;;;0.99;100.00;97673.94;108053;1264;71992;-66
2023/01/08 03:35:37;;;;;;;25.20;18.10;;;;;;;0.93;100.00;97675.13;108049;1261;68728;-67
2023/01/08 03:38:30;;;;;;;24.10;18.10;;;;;;;0.87;100.00;97676.88;108096;1260;69894;-67
2023/01/08 03:41:05;;;;;;;34.30;21.20;;;;;;;0.78;100.00;97676.27;108106;1264;59668;-67
2023/01/08 03:43:35;;;;;;;27.80;21.50;;;;;;;0.71;100.00;97675.95;108118;1264;59646;-66
2023/01/08 03:46:32;;;;;;;25.60;19.00;;;;;;;0.65;100.00;97673.93;108132;1259;71215;-67
2023/01/08 03:49:05;;;;;;;31.80;20.40;;;;;;;0.57;100.00;97673.30;108091;1264;69277;-67
2023/01/08 03:51:52;;;;;;;27.10;18.70;;;;;;;0.52;100.00;97674.30;108091;1259;67509;-67
2023/01/08 03:54:29;;;;;;;32.40;21.80;;;;;;;0.46;100.00;97673.59;108072;1264;59681;-67
2023/01/08 03:57:00;;;;;;;36.70;22.70;;;;;;;0.44;100.00;97670.08;108084;1264;59642;-66
2023/01/08 03:59:30;;;;;;;35.80;24.90;;;;;;;0.41;100.00;97668.06;108151;1260;70586;-66
2023/01/08 04:02:00;;;;;;;32.60;20.60;;;;;;;0.41;100.00;97672.54;108027;1260;69785;-67
2023/01/08 04:04:30;;;;;;;26.10;18.20;;;;;;;0.38;100.00;97671.93;108091;1259;69311;-67
2023/01/08 04:06:59;;;;;;;24.70;18.00;;;;;;;0.34;100.00;97672.38;108074;1264;59690;-67
2023/01/08 04:09:29;;;;;;;26.10;17.70;;;;;;;0.31;100.00;97679.51;108099;1259;59658;-66
2023/01/08 04:11:58;;;;;;;;;;;;;;;0.29;100.00;97684.21;108146;1263;71366;-66
2023/01/08 04:14:28;;;;;;;20.00;13.40;;;;;;;0.28;100.00;97687.83;108146;1261;69019;-66
2023/01/08 04:16:57;;;;;;;29.00;18.90;;;;;;;0.27;100.00;97685.11;108046;1263;69868;-66
2023/01/08 04:19:26;;;;;;;22.80;15.30;;;;;;;0.22;100.00;97681.97;108130;1257;59710;-66
2023/01/08 04:21:57;;;;;;;16.70;12.50;;;;;;;0.18;100.00;97680.90;108099;1259;59679;-66
2023/01/08 04:24:26;;;;;;;;;;;;;;;0.13;100.00;97678.46;108129;1260;71330;-66
2023/01/08 04:26:56;;;;;;;21.20;14.00;;;;;;;0.06;100.00;97681.71;108091;1261;68771;-66
2023/01/08 04:29:27;;;;;;;24.50;15.30;;;;;;;-0.00;100.00;97678.65;108113;1264;69898;-66
2023/01/08 04:31:56;;;;;;;22.00;15.30;;;;;;;-0.07;100.00;97679.65;108114;1264;59719;-66
2023/01/08 04:34:26;;;;;;;29.00;16.30;;;;;;;-0.12;100.00;97679.28;108145;1259;59683;-66
2023/01/08 04:36:56;;;;;;;24.90;15.70;;;;;;;-0.17;100.00;97681.81;108117;1259;70555;-66
2023/01/08 04:39:26;;;;;;;26.30;13.80;;;;;;;-0.22;100.00;97680.08;108073;1264;69114;-66
2023/01/08 04:41:56;;;;;;;;;;;;;;;-0.26;100.00;97684.45;108101;1264;69302;-66
2023/01/08 04:44:27;;;;;;;18.70;13.20;;;;;;;-0.30;100.00;97682.83;108094;1264;59751;-67
2023/01/08 04:46:57;;;;;;;21.70;12.20;;;;;;;-0.32;100.00;97679.63;108118;1259;59717;-68
2023/01/08 04:49:26;;;;;;;25.70;16.40;;;;;;;-0.32;100.00;97679.11;108077;1260;71581;-67
2023/01/08 04:51:55;;;;;;;33.40;18.10;;;;;;;-0.33;100.00;97678.27;108106;1264;68839;-67
2023/01/08 04:54:25;;;;;;;;;;;;;;;-0.38;100.00;97679.96;108092;1260;69283;-67
2023/01/08 04:56:55;;;;;;;23.10;13.50;;;;;;;-0.42;100.00;97679.88;108113;1260;59677;-67
2023/01/08 04:59:24;;;;;;;21.40;13.30;;;;;;;-0.46;100.00;97679.46;108125;1263;59715;-65
2023/01/08 05:01:55;;;;;;;29.00;14.80;;;;;;;-0.51;100.00;97683.69;108103;1259;71796;-65
2023/01/08 05:04:25;;;;;;;40.60;15.80;;;;;;;-0.57;100.00;97679.19;108100;1260;68712;-66
2023/01/08 05:06:55;;;;;;;26.70;14.30;;;;;;;-0.59;100.00;97679.27;108081;1260;68596;-66
2023/01/08 05:09:25;;;;;;;18.40;13.70;;;;;;;-0.64;100.00;97678.87;108067;1259;59718;-66
2023/01/08 05:11:54;;;;;;;22.50;13.50;;;;;;;-0.69;100.00;97683.27;108046;1264;59749;-66
2023/01/08 05:14:23;;;;;;;17.60;12.60;;;;;;;-0.73;100.00;97684.90;108144;1263;71241;-66
2023/01/08 05:16:53;;;;;;;22.60;15.10;;;;;;;-0.76;100.00;97684.11;108140;1259;68458;-66
2023/01/08 05:19:23;;;;;;;26.90;14.40;;;;;;;-0.79;100.00;97678.86;108126;1260;69953;-66
2023/01/08 05:21:53;;;;;;;27.90;14.30;;;;;;;-0.80;100.00;97681.48;108146;1264;59693;-66
2023/01/08 05:24:23;;;;;;;22.00;13.80;;;;;;;-0.85;100.00;97680.05;108087;1260;59687;-65
2023/01/08 05:26:52;;;;;;;31.20;13.80;;;;;;;-0.89;100.00;97679.96;108099;1264;71942;-65
2023/01/08 05:29:22;;;;;;;17.20;11.50;;;;;;;-0.93;100.00;97683.14;108114;1264;67479;-65
2023/01/08 05:31:52;;;;;;;15.50;10.30;;;;;;;-0.99;100.00;97678.14;108038;1260;69798;-65
2023/01/08 05:34:21;;;;;;;18.30;12.80;;;;;;;-1.02;100.00;97679.06;108109;1260;59746;-65
2023/01/08 05:36:50;;;;;;;18.70;13.10;;;;;;;-1.07;100.00;97681.38;108145;1264;59672;-65
2023/01/08 05:39:20;;;;;;;23.70;13.90;;;;;;;-1.12;100.00;97676.03;108134;1264;70634;-65
2023/01/08 05:41:49;;;;;;;22.00;14.00;;;;;;;-1.16;100.00;97676.11;108134;1259;69128;-65
2023/01/08 05:44:18;;;;;;;25.00;13.10;;;;;;;-1.19;100.00;97677.04;108099;1264;69209;-68
2023/01/08 05:46:48;;;;;;;22.40;12.50;;;;;;;-1.20;100.00;97675.88;108075;1264;59721;-66
2023/01/08 05:49:17;;;;;;;28.80;16.20;;;;;;;-1.20;100.00;97672.27;108201;1264;59694;-66
2023/01/08 05:51:47;;;;;;;41.20;19.60;;;;;;;-1.17;100.00;97672.55;108187;1260;71401;-66
2023/01/08 05:54:16;;;;;;;25.80;15.90;;;;;;;-1.15;100.00;97669.60;108107;1264;68460;-66
2023/01/08 05:56:47;;;;;;;44.10;19.50;;;;;;;-1.14;100.00;97671.47;108104;1260;69290;-67
2023/01/08 05:59:17;;;;;;;29.70;15.80;;;;;;;-1.13;100.00;97670.92;108130;1260;60157;-65
2023/01/08 06:01:46;;;;;;;24.30;13.60;;;;;;;-1.13;100.00;97672.62;108062;1259;59709;-65
2023/01/08 06:04:16;;;;;;;19.40;12.10;;;;;;;-1.12;100.00;97676.38;108043;1259;71360;-65
2023/01/08 06:06:45;;;;;;;19.70;11.50;;;;;;;-1.13;100.00;97676.74;108106;1259;68349;-66
2023/01/08 06:09:14;;;;;;;19.40;11.80;;;;;;;-1.13;100.00;97678.80;108082;1264;68261;-66
2023/01/08 06:11:43;;;;;;;29.60;14.00;;;;;;;-1.15;100.00;97676.10;108135;1258;59744;-66
2023/01/08 06:14:14;;;;;;;21.90;13.20;;;;;;;-1.15;100.00;97677.83;108145;1260;59697;-66
2023/01/08 06:16:43;;;;;;;21.10;12.50;;;;;;;-1.16;100.00;97676.80;108117;1261;71698;-67
2023/01/08 06:19:13;;;;;;;22.10;11.80;;;;;;;-1.15;100.00;97679.00;108128;1260;68981;-66
2023/01/08 06:21:42;;;;;;;21.70;12.60;;;;;;;-1.13;100.00;97681.37;108115;1263;69893;-66
2023/01/08 06:24:12;;;;;;;25.90;15.40;;;;;;;-1.11;100.00;97681.83;108097;1264;59708;-67
2023/01/08 06:26:40;;;;;;;70.10;18.70;;;;;;;-1.07;100.00;97684.30;108096;1264;59724;-67
2023/01/08 06:29:09;;;;;;;38.10;18.20;;;;;;;-1.04;100.00;97687.64;108125;1259;71989;-66
2023/01/08 06:31:38;;;;;;;29.50;16.60;;;;;;;-1.00;100.00;97686.20;108066;1260;68906;-67
2023/01/08 06:34:07;;;;;;;35.90;18.40;;;;;;;-0.96;100.00;97683.22;108140;1264;69798;-66
2023/01/08 06:36:37;;;;;;;24.60;14.40;;;;;;;-0.91;100.00;97687.38;108091;1260;59650;-67
2023/01/08 06:39:06;;;;;;;23.80;15.10;;;;;;;-0.88;100.00;97684.22;108112;1261;59649;-66
2023/01/08 06:41:35;;;;;;;24.20;14.30;;;;;;;-0.85;100.00;97684.48;108081;1260;71990;-67
2023/01/08 06:44:04;;;;;;;21.30;14.50;;;;;;;-0.83;100.00;97687.54;108094;1260;70150;-66
2023/01/08 06:46:37;;;;;;;25.70;15.00;;;;;;;-0.81;100.00;97685.61;108087;1260;68305;-66
2023/01/08 06:49:07;;;;;;;23.90;14.10;;;;;;;-0.80;100.00;97683.86;108138;1264;59731;-67
2023/01/08 06:51:36;;;;;;;23.70;16.50;;;;;;;-0.76;100.00;97683.09;108130;1263;59730;-67
2023/01/08 06:54:05;;;;;;;26.80;16.70;;;;;;;-0.73;100.00;97681.83;108124;1264;71271;-67
2023/01/08 06:56:34;;;;;;;21.20;14.30;;;;;;;-0.68;100.00;97684.42;108101;1261;69761;-66
2023/01/08 06:59:20;;;;;;;31.00;19.30;;;;;;;-0.57;100.00;97687.76;108078;1264;69410;-67
2023/01/08 07:01:49;;;;;;;25.60;18.40;;;;;;;-0.45;100.00;97690.05;108090;1264;59734;-67
2023/01/08 07:04:18;;;;;;;41.20;23.10;;;;;;;-0.34;100.00;97689.77;108109;1264;59691;-69
2023/01/08 07:06:47;;;;;;;70.60;30.00;;;;;;;-0.25;100.00;97692.12;108121;1260;70610;-67
2023/01/08 07:09:16;;;;;;;51.40;27.00;;;;;;;-0.12;100.00;97689.91;108115;1260;69539;-67
2023/01/08 07:11:45;;;;;;;54.40;27.70;;;;;;;0.22;100.00;97691.77;108142;1260;69570;-66
2023/01/08 07:14:14;;;;;;;49.60;28.80;;;;;;;0.63;100.00;97690.78;108066;1264;59794;-65
2023/01/08 07:16:43;;;;;;;76.20;41.40;;;;;;;1.03;100.00;97690.46;108071;1264;59665;-65
2023/01/08 07:19:12;;;;;;;78.70;44.40;;;;;;;1.43;100.00;97691.12;108097;1264;72100;-66
2023/01/08 07:21:41;;;;;;;65.90;39.70;;;;;;;1.97;100.00;97692.27;108146;1259;70274;-66
2023/01/08 07:24:10;;;;;;;53.30;34.60;;;;;;;2.58;100.00;97687.69;108098;1264;69230;-66
2023/01/08 07:26:38;;;;;;;50.70;36.60;;;;;;;3.08;94.82;97692.56;108068;1260;59765;-68
2023/01/08 07:29:08;;;;;;;49.20;32.10;;;;;;;3.39;89.11;97689.95;108084;1264;59700;-66
2023/01/08 07:31:36;;;;;;;44.30;29.90;;;;;;;3.81;87.62;97689.64;108024;1263;71179;-67
2023/01/08 07:34:05;;;;;;;40.60;28.90;;;;;;;4.21;85.18;97688.16;108040;1263;69685;-66
2023/01/08 07:36:34;;;;;;;48.60;33.90;;;;;;;4.54;81.70;97691.89;108008;1263;69790;-66
2023/01/08 07:39:03;;;;;;;53.60;39.30;;;;;;;4.74;79.21;97689.98;108070;1259;59746;-67
2023/01/08 07:41:32;;;;;;;49.80;38.60;;;;;;;4.93;77.97;97689.63;108046;1263;59702;-67
2023/01/08 07:44:02;;;;;;;49.60;36.00;;;;;;;5.13;77.71;97691.48;108066;1263;71570;-66
2023/01/08 07:46:30;;;;;;;40.40;31.20;;;;;;;5.36;77.13;97694.19;108123;1259;69921;-66
2023/01/08 07:48:59;;;;;;;33.80;26.80;;;;;;;5.75;75.98;97693.38;107968;1257;69250;-67
2023/01/08 07:51:28;;;;;;;31.00;25.10;;;;;;;6.13;75.18;97693.54;108072;1264;59729;-66
2023/01/08 07:53:58;;;;;;;24.20;20.90;;;;;;;6.66;75.41;97693.29;108021;1264;59779;-67
2023/01/08 07:56:27;;;;;;;28.40;24.50;;;;;;;7.20;72.95;97697.86;108029;1264;72015;-67
2023/01/08 07:58:56;;;;;;;30.90;24.20;;;;;;;7.70;71.23;97697.14;108014;1260;69390;-67
2023/01/08 08:01:25;;;;;;;29.00;25.30;;;;;;;8.44;75.77;97692.64;107997;1263;69880;-67
2023/01/08 08:03:54;;;;;;;;;;;;;;;9.12;74.87;97696.52;108049;1264;59772;-67
2023/01/08 08:06:23;;;;;;;45.20;38.90;;;;;;;9.46;67.01;97696.25;108048;1262;59748;-66
2023/01/08 08:08:52;;;;;;;38.90;34.70;;;;;;;9.48;64.65;97694.80;108030;1260;70648;-67
2023/01/08 08:11:21;;;;;;;45.20;39.70;;;;;;;9.42;64.14;97692.00;108084;1260;69938;-67
2023/01/08 08:13:50;;;;;;;40.60;35.20;;;;;;;9.96;64.01;97688.02;108023;1259;68734;-68
2023/01/08 08:16:20;;;;;;;40.10;34.90;;;;;;;9.83;61.46;97685.70;108089;1264;59714;-68
2023/01/08 08:18:49;;;;;;;40.00;34.90;;;;;;;9.47;61.76;97689.59;108048;1260;59689;-68
2023/01/08 08:21:18;;;;;;;37.40;33.30;;;;;;;9.78;61.28;97686.23;108054;1263;72122;-66
2023/01/08 08:23:47;;;;;;;40.90;33.90;;;;;;;9.92;62.07;97689.96;108015;1260;68609;-67
2023/01/08 08:26:16;;;;;;;37.20;33.20;;;;;;;10.24;61.61;97689.62;108024;1260;69885;-67
2023/01/08 08:28:45;;;;;;;44.60;37.70;;;;;;;10.80;61.59;97689.98;108024;1263;59755;-67
2023/01/08 08:31:14;;;;;;;42.80;38.00;;;;;;;10.98;59.58;97688.95;108042;1260;59654;-67
2023/01/08 08:33:43;;;;;;;42.50;37.90;;;;;;;10.97;59.14;97692.48;108100;1263;70827;-67
2023/01/08 08:36:11;;;;;;;39.00;34.90;;;;;;;11.13;58.80;97692.75;108160;1263;69155;-67
2023/01/08 08:38:40;;;;;;;34.60;29.10;;;;;;;11.00;58.27;97691.20;108025;1263;69196;-68
2023/01/08 08:41:09;;;;;;;33.40;29.90;;;;;;;10.88;60.05;97692.27;108018;1260;60077;-68
2023/01/08 08:43:37;;;;;;;20.20;18.10;;;;;;;10.84;59.63;97691.30;108073;1264;59754;-68
2023/01/08 08:46:06;;;;;;;27.40;22.80;;;;;;;10.68;60.27;97688.56;108176;1261;71381;-67
2023/01/08 08:48:34;;;;;;;28.40;25.70;;;;;;;11.19;59.21;97691.95;108030;1263;69527;-68
2023/01/08 08:51:04;;;;;;;19.60;17.70;;;;;;;11.87;57.81;97687.09;108047;1263;69274;-67
2023/01/08 08:53:32;;;;;;;19.10;17.20;;;;;;;11.91;57.31;97687.85;108056;1264;59720;-68
2023/01/08 08:56:01;;;;;;;32.00;28.20;;;;;;;12.50;56.56;97680.98;108045;1263;59701;-67
2023/01/08 08:58:30;;;;;;;20.70;17.90;;;;;;;12.84;55.66;97678.56;108062;1261;71226;-67
2023/01/08 09:01:03;;;;;;;21.00;18.80;;;;;;;12.56;55.24;97677.21;108059;1260;69184;-67
2023/01/08 09:03:32;;;;;;;17.60;15.80;;;;;;;12.49;55.56;97672.13;108041;1260;68680;-67
2023/01/08 09:06:01;;;;;;;16.90;15.20;;;;;;;13.24;54.35;97671.42;108081;1260;59791;-67
2023/01/08 09:08:29;;;;;;;15.70;14.00;;;;;;;13.28;54.13;97670.34;108044;1259;59726;-68
2023/01/08 09:10:58;;;;;;;13.60;12.20;;;;;;;13.23;53.62;97664.13;108042;1264;71397;-67
2023/01/08 09:13:27;;;;;;;11.40;10.30;;;;;;;12.94;54.13;97663.77;108095;1259;69799;-68
2023/01/08 09:15:59;;;;;;;10.70;9.30;;;;;;;13.49;53.01;97662.92;108063;1264;69878;-68
2023/01/08 09:18:28;;;;;;;9.00;7.80;;;;;;;13.83;52.88;97656.88;107988;1263;59776;-67
2023/01/08 09:20:57;;;;;;;8.60;7.70;;;;;;;13.81;50.74;97655.62;108003;1259;59693;-66
2023/01/08 09:23:25;;;;;;;10.00;9.00;;;;;;;13.86;52.21;97652.86;108258;1258;72465;-67
2023/01/08 09:25:59;;;;;;;9.50;7.50;;;;;;;14.54;50.91;97643.03;108070;1263;69211;-67
2023/01/08 09:28:28;;;;;;;7.00;6.30;;;;;;;14.43;50.09;97642.56;108033;1258;69114;-67
2023/01/08 09:31:04;;;;;;;8.20;7.30;;;;;;;14.67;50.02;97639.61;108027;1264;59729;-70
2023/01/08 09:33:33;;;;;;;7.30;6.30;;;;;;;14.96;48.82;97636.61;108029;1259;59704;-67
2023/01/08 09:36:02;;;;;;;6.50;5.70;;;;;;;15.46;47.83;97633.56;108092;1263;71291;-69
2023/01/08 09:38:31;;;;;;;10.80;9.50;;;;;;;16.11;48.62;97631.38;108045;1260;69052;-68
2023/01/08 09:41:24;;;;;;;9.10;8.00;;;;;;;15.77;46.67;97634.86;108072;1260;69135;-68
2023/01/08 09:43:55;;;;;;;8.90;7.80;;;;;;;15.95;48.05;97627.19;108073;1263;59751;-67
2023/01/08 09:46:27;;;;;;;9.00;7.80;;;;;;;16.68;45.40;97624.05;108065;1263;60027;-67
2023/01/08 09:48:59;;;;;;;9.20;8.30;;;;;;;16.86;45.12;97621.98;108049;1264;70834;-68
2023/01/08 09:51:34;;;;;;;9.80;8.80;;;;;;;16.66;44.44;97619.50;108101;1259;69699;-67
2023/01/08 09:54:06;;;;;;;10.30;8.50;;;;;;;16.49;44.31;97621.73;108076;1263;68457;-67
2023/01/08 09:56:37;;;;;;;8.40;7.60;;;;;;;15.63;45.38;97621.21;108024;1260;59744;-67
2023/01/08 09:59:09;;;;;;;9.50;8.40;;;;;;;16.19;45.18;97611.52;108021;1260;59681;-67
2023/01/08 10:01:39;;;;;;;11.20;10.10;;;;;;;16.67;44.13;97610.92;108061;1264;70394;-69
2023/01/08 10:04:11;;;;;;;10.50;9.20;;;;;;;16.77;44.32;97614.01;108047;1260;69663;-67
2023/01/08 10:06:45;;;;;;;15.80;12.20;;;;;;;17.23;43.19;97612.66;108057;1260;68942;-67
2023/01/08 10:09:14;;;;;;;18.00;14.30;;;;;;;17.35;42.81;97611.66;108060;1260;60147;-66
2023/01/08 10:11:46;;;;;;;13.00;11.60;;;;;;;17.26;42.72;97606.46;108069;1259;59697;-67
2023/01/08 10:14:24;;;;;;;14.10;11.90;;;;;;;16.85;43.70;97604.60;108096;1264;70554;-67
2023/01/08 10:17:07;;;;;;;13.80;12.40;;;;;;;16.66;43.59;97602.90;108092;1260;68497;-67
2023/01/08 10:19:38;;;;;;;15.80;14.10;;;;;;;16.56;44.31;97597.55;108046;1264;68097;-67
2023/01/08 10:22:15;;;;;;;11.90;10.60;;;;;;;16.81;43.36;97592.17;108048;1264;59689;-67
2023/01/08 10:24:44;;;;;;;13.30;11.90;;;;;;;16.49;44.19;97593.10;108101;1257;59699;-67
2023/01/08 10:27:15;;;;;;;12.30;11.10;;;;;;;16.98;43.34;97589.49;108044;1260;70568;-67
2023/01/08 10:29:44;;;;;;;13.10;11.70;;;;;;;17.37;42.56;97585.39;108069;1260;68208;-67
2023/01/08 10:32:33;;;;;;;16.00;13.80;;;;;;;16.90;42.77;97581.14;108049;1263;69283;-68
2023/01/08 10:35:05;;;;;;;14.10;12.50;;;;;;;17.14;42.42;97577.41;108038;1263;59714;-68
2023/01/08 10:37:43;;;;;;;13.00;11.70;;;;;;;17.21;42.59;97574.44;108051;1260;59712;-70
2023/01/08 10:40:21;;;;;;;14.20;12.60;;;;;;;16.63;43.16;97575.56;108057;1260;71227;-67
2023/01/08 10:42:52;;;;;;;13.20;11.70;;;;;;;17.12;42.46;97572.12;108058;1260;68648;-67
2023/01/08 10:45:24;;;;;;;13.30;11.40;;;;;;;17.36;41.57;97566.82;108036;1264;69553;-67
2023/01/08 10:47:58;;;;;;;11.70;10.00;;;;;;;17.18;42.25;97561.64;108061;1259;59746;-67
2023/01/08 10:50:30;;;;;;;10.60;8.80;;;;;;;16.82;42.42;97557.95;108026;1264;59703;-67
2023/01/08 10:53:20;;;;;;;11.60;9.90;;;;;;;17.73;40.73;97547.81;108103;1258;71312;-68
2023/01/08 10:56:03;;;;;;;10.00;9.00;;;;;;;17.66;40.62;97546.42;108070;1263;69799;-68
2023/01/08 10:58:42;;;;;;;11.30;9.10;;;;;;;18.59;40.67;97546.66;108052;1263;69106;-67
2023/01/08 11:01:17;;;;;;;8.40;7.50;;;;;;;19.24;39.26;97544.82;108074;1263;59788;-67
2023/01/08 11:04:02;;;;;;;8.40;7.60;;;;;;;19.13;38.11;97541.16;108062;1260;59735;-67
2023/01/08 11:06:36;;;;;;;9.60;8.50;;;;;;;18.67;38.78;97537.33;108065;1264;71535;-67
2023/01/08 11:09:25;;;;;;;9.50;8.40;;;;;;;19.11;37.98;97529.56;108118;1260;70371;-66
2023/01/08 11:11:54;;;;;;;9.10;8.20;;;;;;;19.12;37.52;97529.85;108028;1263;69753;-67
2023/01/08 11:14:35;;;;;;;9.60;7.50;;;;;;;18.85;37.77;97529.48;108082;1262;59788;-66
2023/01/08 11:17:11;;;;;;;8.20;7.40;;;;;;;19.08;37.84;97524.77;108085;1264;59757;-69
2023/01/08 11:19:40;;;;;;;8.10;7.30;;;;;;;19.71;37.00;97520.02;108046;1264;71211;-68
2023/01/08 11:22:21;;;;;;;9.30;7.40;;;;;;;19.09;36.85;97523.31;108076;1260;69862;-69
2023/01/08 11:24:52;;;;;;;7.30;5.60;;;;;;;19.98;36.49;97513.38;108062;1254;68766;-68
2023/01/08 11:27:34;;;;;;;8.10;7.00;;;;;;;19.68;35.91;97509.18;108034;1263;59769;-68
2023/01/08 11:30:12;;;;;;;4.80;4.30;;;;;;;20.33;34.94;97512.98;108076;1264;59702;-68
2023/01/08 11:32:49;;;;;;;5.90;5.30;;;;;;;20.52;34.65;97507.02;108062;1263;71364;-68
2023/01/08 11:35:51;;;;;;;6.20;5.20;;;;;;;20.48;34.21;97504.52;108041;1264;69508;-69